Weather observations for the past three days for
Bowie Municipal Airport
Imperial (Metric)
Date Time (cdt) Wind (mph) Vis. (mi.) Weather Sky Cond. Temperature (ºF) Relative Humidity Wind Chill (°F) Heat Index (°F) Pressure Precipitation (in)
Air Dwpt 6 hour altimeter (in) sea level (mb) 1 hr 3 hr 6 hr
Max. Min.
10 14:15 NE 12 G 16 10.00 Overcast SCT011 OVC043 65.8 61.7 87% 30.08 0.0
10 13:55 NE 10 G 17 10.00 Overcast BKN011 OVC043 65.1 61.9 89% 30.07 0.0 0.02
10 13:35 NE 7 10.00 Overcast SCT011 OVC043 64.4 61.7 91% 30.06 0.0 0.02
10 13:15 NE 5 10.00 Overcast OVC041 64.4 61.7 91% 30.06 0.0 0.01
10 12:55 E 5 10.00 Overcast OVC039 64.2 61.5 72.7 61 91% 30.06 0.0 0.01 0.03
10 12:35 E 5 10.00 Overcast OVC039 63.3 61.2 93% 30.06 0.0 0.01
10 12:15 E 6 10.00 Overcast OVC037 62.4 60.8 94% 30.05 0.0
10 11:55 E 8 G 16 10.00 Overcast OVC037 61.9 60.4 95% 30.04 0.0 0.01
10 11:35 E 9 10.00 Overcast OVC039 61.9 60.6 96% 30.03 0.0 0.01
10 11:15 E 10 G 18 10.00 Light Rain OVC039 61.3 60.3 96% 30.02 0.0 0.01
10 10:55 NE 9 G 21 7.00 Rain OVC037 61.2 59.2 93% 30.02 0.0 0.01
10 10:35 NE 14 G 24 10.00 Light Rain SCT021 SCT033 OVC039 64 57.2 79% 30.03 0.0
10 10:15 N 16 G 28 10.00 Overcast SCT023 BKN042 OVC065 67.1 57.9 73% 30.02 0.0
10 09:55 S 6 10.00 Mostly Cloudy BKN065 72.7 58.8 62% 29.97 0.0
10 09:35 SE 7 10.00 Fair CLR 71.2 58.3 64% 29.96 0.0
10 09:15 S 10 10.00 Partly Cloudy SCT055 71.1 59 66% 29.95 0.0
10 08:55 SE 13 G 17 10.00 Partly Cloudy SCT055 SCT070 70.2 58.3 66% 29.95 0.0
10 08:35 SE 8 10.00 Partly Cloudy SCT050 69.1 58.1 68% 29.95 0.0
10 08:15 SE 8 G 17 10.00 Partly Cloudy SCT029 SCT034 SCT050 68 57.7 70% 29.94 0.0
10 07:55 SE 8 10.00 Mostly Cloudy SCT027 SCT034 BKN055 67.1 57.6 72% 29.94 0.0
10 07:35 SE 7 G 16 10.00 Overcast BKN031 BKN036 OVC055 67.1 57.4 71% 29.94 0.0
10 07:15 SE 8 10.00 Overcast OVC031 67.1 57.9 73% 29.94 0.0
10 06:55 SE 7 10.00 Overcast BKN031 OVC038 67.1 57.6 71.4 67.1 72% 29.93 0.0
10 06:35 SE 10 10.00 Overcast OVC038 67.1 57.6 72% 29.92 0.0
10 06:15 SE 8 10.00 Overcast SCT034 OVC040 67.3 57.2 70% 29.92 0.0
10 05:55 SE 9 10.00 Mostly Cloudy BKN037 68 56.3 66% 29.92 0.0
10 05:35 E 9 G 17 10.00 Partly Cloudy SCT037 68 55.4 64% 29.91 0.0
10 05:15 E 9 10.00 Partly Cloudy SCT035 67.6 55.4 65% 29.9 0.0
10 04:55 E 9 G 18 10.00 Mostly Cloudy BKN037 68.2 55.4 64% 29.9 0.0
10 04:35 E 14 G 22 10.00 Overcast OVC037 68.2 55.6 64% 29.9 0.0
10 04:15 E 13 G 21 10.00 Overcast BKN039 OVC044 68.4 56.5 66% 29.9 0.0
10 03:55 E 14 G 21 10.00 Mostly Cloudy BKN041 BKN050 68.4 57.9 69% 29.9 0.0
10 03:35 E 12 G 18 10.00 Partly Cloudy SCT045 68.4 59 72% 29.89 0.0
10 03:15 E 8 G 20 10.00 Fair CLR 68.7 61.3 77% 29.89 0.0
10 02:55 E 13 G 20 10.00 Light Rain SCT029 SCT048 SCT050 69.3 61.7 77% 29.88 0.0
10 02:35 E 16 G 22 10.00 Overcast SCT029 BKN050 OVC060 70 63 79% 29.9 0.0
10 02:15 NE 10 G 23 10.00 Mostly Cloudy SCT060 BKN065 70 64 82% 29.92 0.0
10 01:55 Calm 10.00 Fair CLR 70.3 63.7 80% 29.86 0.0
10 01:35 SE 7 10.00 Fair CLR 70.7 64.4 81% 29.84 0.0
10 01:15 SE 8 10.00 Fair CLR 70.7 64.4 81% 29.83 0.0
10 00:55 SE 7 G 17 10.00 Fair CLR 71.6 64.4 84.7 71.2 78% 29.84 0.0
10 00:35 E 7 10.00 Fair CLR 71.6 64.4 78% 29.86 0.0
10 00:15 E 10 G 17 7.00 Rain SCT013 SCT029 BKN065 74.1 64 71% 29.87 0.0
09 23:55 NE 12 G 22 10.00 Partly Cloudy SCT065 74.3 62.8 67% 29.87 0.0
09 23:35 SE 5 10.00 Fair CLR 73.9 62.2 67% 29.8 0.0
09 23:15 SE 8 10.00 Fair CLR 74.1 62.4 67% 29.77 0.0
09 22:55 SE 7 10.00 Fair CLR 74.5 63.3 68% 29.77 0.0
09 22:35 SE 9 G 16 10.00 Fair CLR 74.8 64 69% 29.77 0.0
09 22:15 SE 12 10.00 Fair CLR 75.2 64.4 69% 77 29.78 0.0
09 21:55 SE 8 10.00 Fair CLR 75.2 63.9 68% 77 29.79 0.0
09 21:35 SE 8 10.00 Fair CLR 75.6 62.4 64% 78 29.78 0.0
09 21:15 SE 8 10.00 Fair CLR 75.7 61.5 61% 78 29.77 0.0
09 20:55 SE 7 10.00 Fair CLR 76.3 61.5 60% 78 29.77 0.0
09 20:35 SE 6 10.00 Fair CLR 76.6 61.9 60% 78 29.77 0.0
09 20:15 SE 6 10.00 Fair CLR 78.4 62.2 58% 80 29.77 0.0
09 19:55 SE 6 10.00 Fair CLR 80.6 62.6 54% 82 29.77 0.0
09 19:35 SE 6 10.00 Fair CLR 82.8 62.6 51% 84 29.76 0.0
09 19:15 SE 8 10.00 Fair CLR 84.2 59.7 44% 84 29.76 0.0
09 18:55 SE 8 10.00 Fair CLR 84.9 60.3 87.3 79.5 43% 85 29.76 0.0
09 18:35 S 8 10.00 Fair CLR 85.5 59.9 42% 85 29.77 0.0
09 18:15 SE 7 10.00 Fair CLR 86 59.4 41% 86 29.77 0.0
09 17:55 SE 6 10.00 Partly Cloudy SCT002 86.7 58.8 39% 86 29.77 0.0
09 17:35 SE 6 10.00 Partly Cloudy SCT002 87.1 58.5 38% 86 29.77 0.0
09 17:15 SE 5 10.00 Partly Cloudy SCT002 86.7 59 39% 86 29.78 0.0
09 16:55 S 3 10.00 Fair CLR 86.9 59.4 39% 86 29.78 0.0
09 16:35 S 3 10.00 Fair CLR 86.2 57.2 37% 85 29.79 0.0
09 16:15 S 8 10.00 Fair CLR 86 57.7 38% 85 29.79 0.0
09 15:55 Calm 10.00 Fair CLR 85.5 57 38% 84 29.81 0.0
09 15:35 E 6 10.00 Fair CLR 86 57.6 38% 85 29.81 0.0
09 15:15 E 6 7.00 Fair CLR 85.1 57.6 39% 84 29.82 0.0
09 14:55 E 6 10.00 Fair CLR 85.1 59.2 42% 85 29.82 0.0
09 14:35 E 3 10.00 Fair CLR 85.1 57.6 39% 84 29.83 0.0
09 14:15 Calm 10.00 Fair CLR 83.3 57 41% 83 29.83 0.0
09 13:55 NE 5 10.00 Fair CLR 82.8 61.7 49% 83 29.85 0.0
09 13:35 N 5 10.00 Fair CLR 81.3 63.9 55% 83 29.85 0.0
09 13:15 NE 5 10.00 Fair CLR 80.4 64.2 58% 82 29.86 0.0
09 12:55 Calm 10.00 Fair CLR 79.7 64.9 80.1 60.1 61% 82 29.87 0.0
09 12:35 Calm 10.00 Fair CLR 78.8 65.3 63% 81 29.87 0.0
09 12:15 E 5 10.00 Fair CLR 78.6 64.6 62% 80 29.88 0.0
09 11:55 Calm 10.00 Fair CLR 77.4 65.1 66% 79 29.88 0.0
09 11:35 N 6 10.00 Fair CLR 76.6 65.8 69% 78 29.89 0.0
09 11:15 NW 3 10.00 Fair CLR 74.8 65.7 73% 29.89 0.0
09 10:55 NW 6 10.00 Fair CLR 74.1 65.3 74% 29.89 0.0
09 10:35 N 6 10.00 Fair CLR 73.6 65.5 76% 29.89 0.0
09 10:15 NW 6 10.00 Fair CLR 71.8 64 77% 29.89 0.0
09 09:55 W 5 10.00 Fair CLR 71.1 63.9 78% 29.88 0.0
09 09:35 NW 3 10.00 Fair CLR 69.4 63.7 82% 29.88 0.0
09 09:15 Calm 10.00 Fair CLR 67.6 63.7 87% 29.88 0.0
09 08:55 NW 6 10.00 Fair CLR 66.2 63 89% 29.89 0.0
09 08:35 Calm 10.00 Fair CLR 65.3 62.2 90% 29.89 0.0
09 08:15 Calm 10.00 Fair CLR 64.8 61.7 90% 29.88 0.0
09 07:55 Calm 10.00 Fair CLR 62.6 61.2 95% 29.88 0.0
09 07:35 W 3 10.00 Fair CLR 61.7 60.8 97% 29.87 0.0
09 07:15 W 6 10.00 Fair CLR 60.4 59.9 98% 29.87 0.0
09 06:55 SW 6 10.00 Fair CLR 60.3 59.5 69.4 59.9 97% 29.87 0.0
09 06:35 SW 3 10.00 Fair CLR 60.3 59.9 99% 29.85 0.0
09 06:15 SW 3 10.00 Fair CLR 60.1 59.2 97% 29.85 0.0
09 05:55 Calm 7.00 Fair CLR 61.7 59.7 93% 29.84 0.0
09 05:35 N 5 10.00 Fair CLR 62.1 60.1 93% 29.82 0.0
09 05:15 N 6 10.00 Fair CLR 62.8 59.9 90% 29.82 0.0
09 04:55 N 7 10.00 Fair CLR 63.5 59.9 88% 29.82 0.0
09 04:35 N 8 10.00 Fair CLR 63.7 61 91% 29.81 0.0
09 04:15 N 9 10.00 Fair CLR 63.5 60.8 91% 29.8 0.0
09 03:55 N 8 10.00 Fair CLR 63.7 61.3 92% 29.81 0.0
09 03:35 NE 9 10.00 Fair CLR 63.9 61.7 93% 29.81 0.0
09 03:15 N 8 10.00 Fair CLR 64 62.6 95% 29.81 0.0
09 02:55 N 7 10.00 Fair CLR 64.9 62.8 93% 29.82 0.0
09 02:35 N 10 10.00 Fair CLR 66 62.6 89% 29.82 0.0
09 02:15 N 8 10.00 Fair CLR 67.8 61.3 80% 29.8 0.0
09 01:55 NW 12 10.00 Fair CLR 68.9 61 76% 29.79 0.0
09 01:35 S 5 10.00 Partly Cloudy SCT120 68.7 61.7 78% 29.77 0.0
09 01:15 S 8 G 20 10.00 Overcast SCT050 SCT070 OVC110 68.7 64.2 86% 29.79 0.0
09 00:55 S 10 10.00 Light Rain SCT050 SCT070 OVC110 68.7 65.5 75.2 66.2 89% 29.83 0.0 0.02 0.04
09 00:35 SE 6 10.00 Light Rain SCT070 SCT085 BKN110 68.2 66 93% 29.85 0.0 0.02
09 00:15 SW 12 G 21 10.00 Light Rain SCT050 SCT070 SCT110 67.6 65.5 93% 29.85 0.0 0.01
08 23:55 S 13 7.00 Light Rain SCT034 BKN060 OVC110 66.6 63.7 91% 29.86 0.0 0.02
08 23:35 SW 8 10.00 Light Rain SCT034 SCT055 OVC100 67.1 60.3 79% 29.88 0.0
08 23:15 E 9 G 18 10.00 Overcast SCT020 BKN030 OVC039 69.3 62.2 78% 29.88 0.0
08 22:55 N 9 G 14 10.00 Overcast SCT015 BKN023 OVC110 70 61.9 76% 29.89 0.0
08 22:35 N 8 10.00 Mostly Cloudy BKN110 67.8 64.6 89% 29.87 0.0
08 22:15 SE 7 10.00 Partly Cloudy SCT110 68 64.4 88% 29.81 0.0
08 21:55 SE 5 10.00 Partly Cloudy SCT110 67.6 64.4 89% 29.82 0.0
08 21:35 E 8 10.00 Fair CLR 68 64.4 88% 29.8 0.0
08 21:15 E 6 10.00 Fair CLR 68.2 64.2 87% 29.8 0.0
08 20:55 S 7 10.00 Fair CLR 69.3 64.4 85% 29.76 0.0
08 20:35 S 7 10.00 Fair CLR 70.2 63.9 81% 29.75 0.0
08 20:15 S 8 10.00 Fair CLR 71.4 63.7 77% 29.75 0.0
08 19:55 S 10 10.00 Fair CLR 72.7 63.5 73% 29.75 0.0
08 19:35 S 9 10.00 Fair CLR 73.8 63.7 71% 29.77 0.0
08 19:15 S 8 10.00 Fair CLR 74.5 63.7 69% 29.77 0.0
08 18:55 S 8 10.00 Fair CLR 75.2 63.7 77.4 72 68% 77 29.76 0.0
08 18:35 S 9 10.00 Fair CLR 76.1 64.4 67% 78 29.76 0.0
08 18:15 S 8 10.00 Fair CLR 76.3 64.2 66% 78 29.77 0.0
08 17:55 S 10 10.00 Fair CLR 77 64.6 66% 79 29.77 0.0
08 17:35 S 8 10.00 Fair CLR 76.6 64.4 66% 78 29.77 0.0
08 17:15 S 12 G 16 10.00 Fair CLR 76.6 64.2 66% 78 29.77 0.0
08 16:55 S 8 10.00 Fair CLR 76.3 64.2 66% 78 29.79 0.0
08 16:35 S 7 10.00 Partly Cloudy SCT026 76.1 64 66% 78 29.79 0.0
08 16:15 SE 8 10.00 Partly Cloudy SCT026 76.3 64 66% 78 29.8 0.0
08 15:55 S 10 G 17 10.00 Partly Cloudy SCT026 77.2 64.8 66% 79 29.8 0.0
08 15:35 S 13 G 22 10.00 Partly Cloudy SCT026 77.2 64.9 66% 79 29.81 0.0
08 15:15 S 12 G 17 10.00 Fair CLR 77.2 65.5 67% 79 29.81 0.0
08 14:55 S 10 G 17 10.00 Partly Cloudy SCT025 76.5 64.8 67% 78 29.82 0.0
08 14:35 S 15 G 20 10.00 Partly Cloudy SCT025 SCT049 76.6 64.4 66% 78 29.83 0.0
08 14:15 S 12 10.00 Mostly Cloudy BKN049 75.6 62.4 64% 78 29.84 0.0
08 13:55 S 9 10.00 Overcast SCT039 OVC047 75 62.1 64% 77 29.85 0.0
08 13:35 S 7 10.00 Overcast BKN037 OVC047 73.2 60.1 64% 29.86 0.0
08 13:15 S 8 10.00 Overcast OVC035 72.3 58.5 62% 29.87 0.0
08 12:55 S 10 10.00 Overcast OVC037 73.4 59 73.8 58.1 61% 29.88 0.0
08 12:35 S 8 10.00 Partly Cloudy SCT039 SCT055 71.8 57.4 61% 29.89 0.0
08 12:15 S 10 10.00 Fair CLR 72 57.6 61% 29.9 0.0
08 11:55 S 9 10.00 Partly Cloudy SCT047 71.1 57.7 63% 29.91 0.0
08 11:35 S 9 10.00 Fair CLR 70.2 56.7 62% 29.91 0.0
08 11:15 S 9 10.00 Partly Cloudy SCT050 69.1 57 66% 29.93 0.0
08 10:55 S 9 10.00 Partly Cloudy SCT050 68.2 57.6 69% 29.93 0.0
08 10:35 S 12 10.00 Partly Cloudy SCT050 66.9 58.1 73% 29.93 0.0
08 10:15 S 8 10.00 Partly Cloudy SCT050 SCT070 64.9 58.3 79% 29.95 0.0
08 09:55 S 8 10.00 Mostly Cloudy BKN050 BKN060 BKN070 63.9 57.7 81% 29.95 0.0
08 09:35 S 8 10.00 Mostly Cloudy BKN050 BKN065 62.6 57.2 83% 29.95 0.0
08 09:15 S 9 10.00 Mostly Cloudy BKN046 BKN060 62.2 57.2 84% 29.96 0.0
08 08:55 S 7 10.00 Overcast BKN046 OVC060 60.6 57 88% 29.97 0.0
08 08:35 S 9 10.00 Mostly Cloudy BKN046 BKN060 BKN080 59.9 56.8 90% 29.96 0.0
08 08:15 S 8 10.00 Overcast BKN048 OVC060 59.2 56.8 92% 29.96 0.0
08 07:55 S 6 10.00 Overcast BKN048 OVC050 59 56.5 91% 29.95 0.0
08 07:35 S 6 10.00 Overcast OVC050 58.8 56.5 92% 29.95 0.0
08 07:15 S 8 10.00 Overcast OVC060 58.1 55.8 92% 29.95 0.0
08 06:55 S 7 10.00 Overcast BKN065 OVC070 58.1 55.6 58.1 53.2 91% 29.95 0.0
08 06:35 S 3 10.00 Overcast OVC065 58.1 55.6 91% 29.94 0.0
08 06:15 Calm 10.00 Overcast BKN065 OVC090 57.2 55.2 93% 29.94 0.0
08 05:55 S 5 10.00 Mostly Cloudy BKN075 BKN090 56.8 54.9 93% 29.94 0.0
08 05:35 S 6 10.00 Mostly Cloudy BKN075 BKN100 56.8 54.7 93% 29.94 0.0
08 05:15 S 3 10.00 Mostly Cloudy BKN075 BKN110 57 54.7 92% 29.94 0.0
08 04:55 S 5 10.00 Partly Cloudy SCT080 SCT100 SCT120 56.7 54.7 93% 29.93 0.0
08 04:35 S 6 10.00 Overcast SCT019 SCT065 OVC090 56.3 54.5 94% 29.93 0.0
08 04:15 S 5 10.00 Light Rain SCT021 SCT060 BKN100 55.8 53.1 91% 29.94 0.0
08 03:55 Calm 10.00 Partly Cloudy SCT110 54.7 52.5 92% 29.95 0.0
08 03:35 Calm 10.00 Partly Cloudy SCT075 54 51.6 92% 29.94 0.0
08 03:15 Calm 10.00 Mostly Cloudy BKN075 54.3 51.3 89% 29.94 0.0
08 02:55 Calm 10.00 Partly Cloudy SCT075 55.8 51.4 86% 29.96 0.0
08 02:35 S 3 10.00 Fair CLR 56.1 51.8 86% 29.97 0.0
08 02:15 S 7 10.00 Fair CLR 56.3 52 86% 29.98 0.0
08 01:55 S 6 10.00 Fair CLR 55.8 52 87% 29.98 0.0
08 01:35 S 3 10.00 Fair CLR 54.5 51.8 91% 29.99 0.0
08 01:15 S 5 10.00 Fair CLR 54 51.1 90% 30 0.0
08 00:55 S 5 10.00 Fair CLR 53.1 51.3 71.8 53.1 94% 30 0.0
08 00:35 Calm 10.00 Fair CLR 54.7 52.5 92% 30 0.0
08 00:15 S 3 10.00 Fair CLR 55.4 52.3 90% 30 0.0
07 23:55 Calm 10.00 Fair CLR 56.5 52 85% 30 0.0
07 23:35 SE 3 10.00 Fair CLR 57 52.5 85% 30 0.0
07 23:15 Calm 10.00 Fair CLR 58.1 52 80% 30 0.0
07 22:55 Calm 10.00 Fair CLR 59.5 52.7 78% 30 0.0
07 22:35 Calm 10.00 Fair CLR 59.7 52.7 78% 30 0.0
07 22:15 Calm 10.00 Fair CLR 60.8 52.5 74% 29.99 0.0
07 21:55 SE 3 10.00 Fair CLR 61.7 52.2 71% 29.99 0.0
07 21:35 Calm 10.00 Fair CLR 61.3 52.7 73% 29.98 0.0
07 21:15 Calm 10.00 Fair CLR 62.6 51.8 68% 29.97 0.0
07 20:55 S 3 10.00 Fair CLR 63.9 51.6 65% 29.97 0.0
07 20:35 S 3 10.00 Fair CLR 64.8 52 63% 29.97 0.0
07 20:15 S 5 10.00 Fair CLR 66.2 51.8 60% 29.96 0.0
07 19:55 S 5 10.00 Fair CLR 67.1 51.6 58% 29.96 0.0
07 19:35 S 7 10.00 Fair CLR 68.2 51.6 56% 29.97 0.0
07 19:15 S 6 10.00 Fair CLR 70.7 51.8 51% 29.97 0.0
07 18:55 Calm 10.00 Fair CLR 71.8 50.4 74.7 66.9 47% 29.97 0.0
07 18:35 Calm 10.00 Fair CLR 72.7 47.7 41% 29.97 0.0
07 18:15 S 5 10.00 Fair CLR 74.3 48.4 40% 29.97 0.0
07 17:55 Calm 10.00 Fair CLR 73.4 46.6 39% 29.97 0.0
07 17:35 E 3 10.00 Fair CLR 74.7 48.2 39% 29.98 0.0
07 17:15 N 3 10.00 Fair CLR 73 47.7 41% 29.98 0.0
07 16:55 Calm 10.00 Fair CLR 72.3 47.8 42% 29.99 0.0
07 16:35 Calm 10.00 Fair CLR 72.3 46.8 40% 30 0.0
07 16:15 Calm 10.00 Fair CLR 72.3 47.1 41% 30 0.0
07 15:55 Calm 10.00 Fair CLR 72.5 48.2 42% 30.01 0.0
07 15:35 E 3 10.00 Fair CLR 72.1 47.8 42% 30.01 0.0
07 15:15 E 5 10.00 Fair CLR 71.1 47.5 43% 30.02 0.0
07 14:55 E 6 10.00 Fair CLR 72 48.7 44% 30.03 0.0
07 14:35 Calm 10.00 Fair CLR 70.9 48 44% 30.04 0.0
Date Time (cdt) Wind (mph) Vis. (mi.) Weather Sky Cond. Air Dwpt Max. Min. Relative Humidity Wind Chill (°F) Heat Index (°F) altimeter (in) sea level (mb) 1 hr 3 hr 6 hr
6 hour
Temperature (ºF) Pressure Precipitation (in)